Time;durP1;ratioP1;P1;durP2;ratioP2;P2;SDS_P1;SDS_P2;PMS_P1;PMS_P2;Temp;Humidity;BMP_temperature;BMP_pressure;BME280_temperature;BME280_humidity;BME280_pressure;Samples;Min_cycle;Max_cycle;Signal;HPM_P1;HPM_P2
2021/06/13 00:01:32;;;;;;;5.80;1.92;;;13.50;93.00;;;;;;5000495;28;20033;-95
2021/06/13 00:04:01;;;;;;;3.60;1.73;;;13.50;93.10;;;;;;5001849;28;20096;-94
2021/06/13 00:06:30;;;;;;;6.53;1.73;;;13.40;93.30;;;;;;5002255;28;20111;-95
2021/06/13 00:08:55;;;;;;;6.32;2.13;;;13.40;93.50;;;;;;5002918;28;20026;-93
2021/06/13 00:11:22;;;;;;;4.25;2.13;;;13.40;93.60;;;;;;5002151;28;20476;-92
2021/06/13 00:13:49;;;;;;;5.75;1.92;;;13.20;93.80;;;;;;5001683;28;20027;-92
2021/06/13 00:16:17;;;;;;;6.55;1.98;;;13.20;94.10;;;;;;5000808;28;20026;-94
2021/06/13 00:18:43;;;;;;;4.10;1.98;;;13.10;94.30;;;;;;4999878;28;20109;-95
2021/06/13 00:21:09;;;;;;;6.57;2.58;;;13.10;94.60;;;;;;4999216;28;20023;-94
2021/06/13 00:23:35;;;;;;;6.75;1.90;;;13.00;94.90;;;;;;5001163;28;20030;-92
2021/06/13 00:26:01;;;;;;;5.05;2.05;;;13.00;95.20;;;;;;5000449;28;20030;-92
2021/06/13 00:28:26;;;;;;;5.07;2.05;;;13.00;95.40;;;;;;5001021;28;20089;-93
2021/06/13 00:30:52;;;;;;;5.32;1.83;;;13.00;95.70;;;;;;5002033;28;20383;-93
2021/06/13 00:33:20;;;;;;;4.97;1.70;;;13.00;96.00;;;;;;5002499;28;20114;-94
2021/06/13 00:35:47;;;;;;;6.22;2.03;;;12.90;96.20;;;;;;5002475;28;20023;-93
2021/06/13 00:38:13;;;;;;;4.32;1.90;;;12.90;96.50;;;;;;5000382;28;20050;-95
2021/06/13 00:40:39;;;;;;;9.43;1.88;;;12.90;96.80;;;;;;5000865;28;20025;-94
2021/06/13 00:43:05;;;;;;;5.38;2.10;;;12.80;97.00;;;;;;5000638;28;20602;-94
2021/06/13 00:45:30;;;;;;;5.20;2.17;;;12.80;97.30;;;;;;5000739;28;20267;-94
2021/06/13 00:47:56;;;;;;;3.40;1.70;;;12.80;97.60;;;;;;4999200;28;20072;-95
2021/06/13 00:50:33;;;;;;;4.70;1.85;;;12.90;97.80;;;;;;4999575;28;20030;-93
2021/06/13 00:53:03;;;;;;;3.20;1.80;;;12.90;98.00;;;;;;4998767;28;20026;-93
2021/06/13 00:55:32;;;;;;;4.40;2.00;;;12.90;98.20;;;;;;5000097;28;20038;-94
2021/06/13 00:57:59;;;;;;;6.60;1.88;;;12.90;98.30;;;;;;5000632;28;20050;-94
2021/06/13 01:00:25;;;;;;;6.47;2.17;;;12.90;98.40;;;;;;4999925;28;20030;-93
2021/06/13 01:02:51;;;;;;;6.68;1.80;;;12.90;98.60;;;;;;4984834;28;20395;-93
2021/06/13 01:05:17;;;;;;;2.97;1.80;;;12.90;98.70;;;;;;5000729;28;20113;-93
2021/06/13 01:08:22;;;;;;;5.28;1.60;;;12.90;98.80;;;;;;5001680;28;20031;-94
2021/06/13 01:10:56;;;;;;;3.22;1.50;;;12.90;98.90;;;;;;4915917;29;20036;-94
2021/06/13 01:13:47;;;;;;;3.10;1.75;;;12.90;99.00;;;;;;4914269;29;20040;-94
2021/06/13 01:16:46;;;;;;;3.03;2.05;;;12.90;99.00;;;;;;4912911;29;20033;-93
2021/06/13 01:19:31;;;;;;;9.10;3.40;;;12.90;99.10;;;;;;4923713;29;20127;-94
2021/06/13 01:22:18;;;;;;;3.03;1.90;;;12.80;99.10;;;;;;4910019;29;20095;-93
2021/06/13 01:24:44;;;;;;;5.30;1.77;;;12.80;99.10;;;;;;4908746;29;20031;-95
2021/06/13 01:27:35;;;;;;;4.97;1.60;;;12.80;99.20;;;;;;4907260;29;20032;-94
2021/06/13 01:30:01;;;;;;;3.85;1.80;;;12.80;99.30;;;;;;4906370;29;20032;-94
2021/06/13 01:32:31;;;;;;;3.28;1.73;;;12.80;99.40;;;;;;4904781;29;20036;-94
2021/06/13 01:35:00;;;;;;;3.60;1.65;;;12.70;99.70;;;;;;4904108;29;20029;-94
2021/06/13 01:37:29;;;;;;;5.15;1.85;;;12.70;99.90;;;;;;4903791;29;20040;-92
2021/06/13 01:40:01;;;;;;;5.53;1.83;;;12.80;99.90;;;;;;4903100;29;20036;-94
2021/06/13 01:42:28;;;;;;;1.77;1.45;;;12.80;99.90;;;;;;4919468;29;20035;-94
2021/06/13 01:44:58;;;;;;;6.10;1.58;;;12.80;99.90;;;;;;4903862;29;20050;-93
2021/06/13 01:47:26;;;;;;;3.35;1.60;;;12.80;99.90;;;;;;4989192;28;20085;-93
2021/06/13 01:49:54;;;;;;;4.50;1.65;;;12.80;99.90;;;;;;5006021;28;20034;-93
2021/06/13 01:52:21;;;;;;;3.03;2.03;;;12.80;99.90;;;;;;4989899;28;20026;-93
2021/06/13 01:54:50;;;;;;;5.07;2.10;;;12.80;99.90;;;;;;5005167;28;20050;-93
2021/06/13 01:57:16;;;;;;;2.38;1.83;;;12.80;99.90;;;;;;5005690;28;20018;-92
2021/06/13 01:59:46;;;;;;;6.35;1.90;;;12.80;99.90;;;;;;5004882;28;20018;-93
2021/06/13 02:02:15;;;;;;;5.95;2.10;;;12.70;99.90;;;;;;5005178;28;20041;-95
2021/06/13 02:04:42;;;;;;;2.78;1.77;;;12.70;99.90;;;;;;4997338;28;20041;-94
2021/06/13 02:07:09;;;;;;;4.68;2.10;;;12.60;99.90;;;;;;4996577;28;20085;-93
2021/06/13 02:09:35;;;;;;;4.80;2.00;;;12.60;99.90;;;;;;4996045;28;20118;-94
2021/06/13 02:12:04;;;;;;;2.83;1.50;;;12.60;99.90;;;;;;4996077;28;20054;-94
2021/06/13 02:14:31;;;;;;;3.35;2.00;;;12.70;99.90;;;;;;4995455;28;20096;-93
2021/06/13 02:16:59;;;;;;;4.53;1.60;;;12.70;99.90;;;;;;4995114;28;20026;-93
2021/06/13 02:19:27;;;;;;;3.58;1.75;;;12.70;99.90;;;;;;4995054;28;20126;-93
2021/06/13 02:21:56;;;;;;;3.83;2.28;;;12.60;99.90;;;;;;4995322;28;20018;-93
2021/06/13 02:24:29;;;;;;;3.70;1.77;;;12.70;99.90;;;;;;4996005;28;20518;-92
2021/06/13 02:26:56;;;;;;;2.97;1.60;;;12.70;99.90;;;;;;4994740;28;20041;-95
2021/06/13 02:29:24;;;;;;;2.95;1.65;;;12.70;99.90;;;;;;4995332;28;20034;-92
2021/06/13 02:31:51;;;;;;;2.75;1.58;;;12.70;99.90;;;;;;4995055;28;20030;-93
2021/06/13 02:34:23;;;;;;;4.50;2.55;;;12.80;99.90;;;;;;4994567;28;20081;-96
2021/06/13 02:36:53;;;;;;;3.15;1.83;;;12.80;99.90;;;;;;4998682;28;20041;-93
2021/06/13 02:39:21;;;;;;;4.28;1.90;;;12.80;99.90;;;;;;5001362;28;20042;-95
2021/06/13 02:41:49;;;;;;;5.30;2.30;;;12.90;99.90;;;;;;5006308;28;20022;-94
2021/06/13 02:44:16;;;;;;;1.95;1.73;;;12.90;99.90;;;;;;4990936;28;20034;-94
2021/06/13 02:46:42;;;;;;;2.97;1.80;;;13.00;99.90;;;;;;5007109;28;20046;-94
2021/06/13 02:49:10;;;;;;;2.55;1.80;;;13.00;99.90;;;;;;5006123;28;20027;-93
2021/06/13 02:52:15;;;;;;;2.58;1.67;;;13.10;99.90;;;;;;5005251;28;20061;-93
2021/06/13 02:54:44;;;;;;;6.80;2.40;;;13.10;99.90;;;;;;4924598;29;20131;-92
2021/06/13 02:57:37;;;;;;;5.25;2.00;;;13.10;99.90;;;;;;4902819;29;20123;-94
2021/06/13 03:00:08;;;;;;;3.10;1.70;;;13.20;99.90;;;;;;4918663;29;20024;-93
2021/06/13 03:02:38;;;;;;;5.03;2.08;;;13.30;99.90;;;;;;4918507;29;20048;-93
2021/06/13 03:05:07;;;;;;;5.22;1.90;;;13.30;99.90;;;;;;4902968;29;20040;-93
2021/06/13 03:07:34;;;;;;;6.60;3.10;;;13.30;99.90;;;;;;4902528;29;20036;-93
2021/06/13 03:10:04;;;;;;;4.40;2.30;;;13.40;99.90;;;;;;4918829;29;20036;-93
2021/06/13 03:12:30;;;;;;;5.05;2.58;;;13.30;99.90;;;;;;4919190;29;20114;-93
2021/06/13 03:14:58;;;;;;;3.33;2.25;;;13.40;99.90;;;;;;4918609;29;20046;-93
2021/06/13 03:17:24;;;;;;;4.70;2.15;;;13.40;99.90;;;;;;4918258;29;20032;-93
2021/06/13 03:19:51;;;;;;;2.90;2.33;;;13.50;99.90;;;;;;4902878;29;20028;-92
2021/06/13 03:22:17;;;;;;;3.58;2.35;;;13.50;99.90;;;;;;4902240;29;20586;-92
2021/06/13 03:24:47;;;;;;;4.00;2.45;;;13.50;99.90;;;;;;4902755;29;20036;-92
2021/06/13 03:27:13;;;;;;;4.07;2.53;;;13.50;99.90;;;;;;4902464;29;20034;-92
2021/06/13 03:29:42;;;;;;;5.30;2.30;;;13.50;99.90;;;;;;4987931;28;20037;-92
2021/06/13 03:32:12;;;;;;;5.80;2.65;;;13.50;99.90;;;;;;4995859;28;20036;-93
2021/06/13 03:34:43;;;;;;;6.65;2.60;;;13.60;99.90;;;;;;4992752;28;20397;-92
2021/06/13 03:37:13;;;;;;;4.90;2.53;;;13.50;99.90;;;;;;4975884;28;20142;-92
2021/06/13 03:39:43;;;;;;;4.03;2.38;;;13.50;99.90;;;;;;4977361;28;20023;-94
2021/06/13 03:42:13;;;;;;;4.25;2.20;;;13.50;99.90;;;;;;4975607;28;20070;-93
2021/06/13 03:44:42;;;;;;;5.20;2.83;;;13.50;99.90;;;;;;4976277;28;20034;-94
2021/06/13 03:47:08;;;;;;;5.18;2.50;;;13.50;99.90;;;;;;4975906;28;20050;-95
2021/06/13 03:49:38;;;;;;;3.72;2.45;;;13.50;99.90;;;;;;4975877;28;20032;-93
2021/06/13 03:52:04;;;;;;;3.80;2.25;;;13.50;99.90;;;;;;4975633;28;20075;-93
2021/06/13 03:54:31;;;;;;;3.55;2.08;;;13.50;99.90;;;;;;4975505;28;20057;-94
2021/06/13 03:56:59;;;;;;;5.88;2.60;;;13.40;99.90;;;;;;4977105;28;20456;-94
2021/06/13 03:59:26;;;;;;;3.47;2.10;;;13.40;99.90;;;;;;4976645;28;20022;-95
2021/06/13 04:01:56;;;;;;;4.63;2.30;;;13.30;99.90;;;;;;4959581;28;20034;-93
2021/06/13 04:04:24;;;;;;;4.25;2.28;;;13.30;99.90;;;;;;4975666;28;20027;-93
2021/06/13 04:06:52;;;;;;;8.07;2.45;;;13.20;99.90;;;;;;4975362;28;20370;-92
2021/06/13 04:09:20;;;;;;;7.20;2.53;;;13.20;99.90;;;;;;4975106;28;20026;-93
2021/06/13 04:11:47;;;;;;;3.35;1.70;;;13.20;99.90;;;;;;4993896;28;20035;-93
2021/06/13 04:14:14;;;;;;;4.00;2.20;;;13.30;99.90;;;;;;4994103;28;20018;-93
2021/06/13 04:16:42;;;;;;;4.32;2.15;;;13.30;99.90;;;;;;4994877;28;20022;-93
2021/06/13 04:19:11;;;;;;;4.22;2.50;;;13.20;99.90;;;;;;4996227;28;20045;-93
2021/06/13 04:21:39;;;;;;;3.55;2.25;;;13.20;99.90;;;;;;5001639;28;20056;-94
2021/06/13 04:24:11;;;;;;;4.65;2.33;;;13.20;99.90;;;;;;5003499;28;20038;-93
2021/06/13 04:26:38;;;;;;;5.13;2.15;;;13.20;99.90;;;;;;5000231;28;20018;-93
2021/06/13 04:29:05;;;;;;;2.97;2.10;;;13.20;99.90;;;;;;4997032;28;20495;-94
2021/06/13 04:31:30;;;;;;;5.75;3.53;;;13.20;99.90;;;;;;4994067;28;20113;-94
2021/06/13 04:33:57;;;;;;;3.63;1.92;;;13.20;99.90;;;;;;4993298;28;20110;-94
2021/06/13 04:36:23;;;;;;;7.78;2.60;;;13.20;99.90;;;;;;4992977;28;20038;-94
2021/06/13 04:38:49;;;;;;;6.03;2.28;;;13.10;99.90;;;;;;4993089;28;20046;-93
2021/06/13 04:41:15;;;;;;;4.85;2.60;;;13.20;99.90;;;;;;4993009;28;20026;-93
2021/06/13 04:43:41;;;;;;;7.07;3.47;;;13.20;99.90;;;;;;4992828;28;20544;-92
2021/06/13 04:46:10;;;;;;;6.22;2.55;;;13.20;99.90;;;;;;4992911;28;20397;-94
2021/06/13 04:48:38;;;;;;;4.18;2.75;;;13.20;99.90;;;;;;4993017;28;20035;-93
2021/06/13 04:51:07;;;;;;;5.10;2.47;;;13.30;99.90;;;;;;4993461;28;20034;-94
2021/06/13 04:53:48;;;;;;;6.63;2.70;;;13.20;99.90;;;;;;4993457;28;20081;-93
2021/06/13 04:56:29;;;;;;;5.55;3.00;;;13.10;99.90;;;;;;4995110;28;20038;-95
2021/06/13 04:58:55;;;;;;;5.18;2.83;;;13.00;99.90;;;;;;4994851;28;20074;-94
2021/06/13 05:01:21;;;;;;;4.15;2.60;;;13.00;99.90;;;;;;5000469;28;20081;-95
2021/06/13 05:03:47;;;;;;;8.25;2.90;;;13.00;99.90;;;;;;4996460;28;20038;-94
2021/06/13 05:06:14;;;;;;;4.82;2.80;;;13.00;99.90;;;;;;4994530;28;20018;-94
2021/06/13 05:08:41;;;;;;;3.13;2.38;;;13.00;99.90;;;;;;4994176;28;20113;-94
2021/06/13 05:11:07;;;;;;;4.70;2.83;;;13.00;99.90;;;;;;4994190;28;20130;-94
2021/06/13 05:13:33;;;;;;;5.80;2.60;;;12.90;99.90;;;;;;4994879;28;20037;-94
2021/06/13 05:16:00;;;;;;;4.20;2.30;;;12.90;99.90;;;;;;4994505;28;20018;-93
2021/06/13 05:18:26;;;;;;;3.90;2.28;;;12.90;99.90;;;;;;4994349;28;20045;-94
2021/06/13 05:20:54;;;;;;;7.85;2.25;;;12.90;99.90;;;;;;4995202;28;20034;-95
2021/06/13 05:23:22;;;;;;;5.38;2.30;;;13.00;99.90;;;;;;4995153;28;20033;-94
2021/06/13 05:25:49;;;;;;;5.07;2.25;;;13.00;99.90;;;;;;4996376;28;20062;-95
2021/06/13 05:28:15;;;;;;;5.63;2.40;;;13.00;99.90;;;;;;4997067;28;20034;-94
2021/06/13 05:30:42;;;;;;;3.03;2.15;;;13.00;99.90;;;;;;5009781;28;20023;-95
2021/06/13 05:33:08;;;;;;;4.50;2.50;;;13.00;99.90;;;;;;4999856;28;20077;-94
2021/06/13 05:35:36;;;;;;;7.95;2.38;;;13.10;99.90;;;;;;5011667;28;20088;-93
2021/06/13 05:38:02;;;;;;;3.15;2.50;;;13.10;99.90;;;;;;5017124;28;20114;-93
2021/06/13 05:40:30;;;;;;;4.60;2.42;;;13.10;99.90;;;;;;5016703;28;20054;-94
2021/06/13 05:42:56;;;;;;;5.55;2.65;;;13.20;99.90;;;;;;5017212;28;20039;-93
2021/06/13 05:45:24;;;;;;;7.65;2.50;;;13.20;99.90;;;;;;5013714;28;20026;-94
2021/06/13 05:47:50;;;;;;;5.03;2.10;;;13.30;99.90;;;;;;5009808;28;20030;-94
2021/06/13 05:50:16;;;;;;;3.88;2.40;;;13.30;99.90;;;;;;5011293;28;20077;-93
2021/06/13 05:52:42;;;;;;;4.50;2.55;;;13.40;99.90;;;;;;5004978;28;20041;-93
2021/06/13 05:55:10;;;;;;;6.57;2.92;;;13.50;99.90;;;;;;5004716;28;20034;-93
2021/06/13 05:57:35;;;;;;;4.40;2.75;;;13.50;99.90;;;;;;5005188;28;20046;-92
2021/06/13 06:00:01;;;;;;;3.05;2.42;;;13.60;99.90;;;;;;4988155;28;20035;-92
2021/06/13 06:02:27;;;;;;;7.95;2.70;;;13.60;99.90;;;;;;5002992;28;20083;-92
2021/06/13 06:04:53;;;;;;;4.47;2.65;;;13.70;99.90;;;;;;5003717;28;20045;-92
2021/06/13 06:07:19;;;;;;;6.10;2.65;;;13.80;99.90;;;;;;5006028;28;20026;-92
2021/06/13 06:09:45;;;;;;;6.10;2.70;;;13.90;99.90;;;;;;5007404;28;20037;-92
2021/06/13 06:12:12;;;;;;;9.35;2.50;;;14.00;99.90;;;;;;5009720;28;20081;-93
2021/06/13 06:14:38;;;;;;;5.28;2.50;;;14.10;99.90;;;;;;5008913;28;20026;-92
2021/06/13 06:17:05;;;;;;;9.43;2.40;;;14.20;99.90;;;;;;5006377;28;20100;-93
2021/06/13 06:19:31;;;;;;;3.42;2.60;;;14.20;99.90;;;;;;5006891;28;20046;-92
2021/06/13 06:21:57;;;;;;;10.23;2.50;;;14.30;99.90;;;;;;5007577;28;20023;-93
2021/06/13 06:24:23;;;;;;;2.65;2.10;;;14.40;99.90;;;;;;5005208;28;20061;-92
2021/06/13 06:26:49;;;;;;;4.68;2.35;;;14.50;99.90;;;;;;5004805;28;20033;-91
2021/06/13 06:29:14;;;;;;;9.27;2.95;;;14.60;99.90;;;;;;5011969;28;20863;-94
2021/06/13 06:31:40;;;;;;;8.60;3.00;;;14.70;99.90;;;;;;5012898;28;20034;-93
2021/06/13 06:34:06;;;;;;;6.65;2.47;;;14.80;99.90;;;;;;5011126;28;20037;-92
2021/06/13 06:36:32;;;;;;;4.93;3.00;;;14.90;99.90;;;;;;5009437;28;20030;-92
2021/06/13 06:39:00;;;;;;;6.70;2.88;;;15.00;99.90;;;;;;5008756;28;20079;-93
2021/06/13 06:41:26;;;;;;;6.05;2.72;;;15.10;99.90;;;;;;5007795;28;20187;-93
2021/06/13 06:44:32;;;;;;;3.78;2.22;;;15.20;99.90;;;;;;5007321;28;20030;-93
2021/06/13 06:47:02;;;;;;;4.50;3.13;;;15.30;99.90;;;;;;5006216;28;20027;-92
2021/06/13 06:49:29;;;;;;;6.65;2.50;;;15.40;99.90;;;;;;5004665;28;20062;-92
2021/06/13 06:51:55;;;;;;;5.13;2.33;;;15.50;99.90;;;;;;5006506;28;20476;-92
2021/06/13 06:54:22;;;;;;;6.28;2.80;;;15.50;99.90;;;;;;5005695;28;20070;-92
2021/06/13 06:56:48;;;;;;;4.63;3.40;;;15.70;99.90;;;;;;4998487;28;20022;-93
2021/06/13 06:59:14;;;;;;;6.05;3.10;;;15.80;99.90;;;;;;5008994;28;20037;-93
2021/06/13 07:01:41;;;;;;;6.65;3.50;;;15.90;99.90;;;;;;4991626;28;20018;-93
2021/06/13 07:04:07;;;;;;;7.85;3.25;;;16.00;99.90;;;;;;5005334;28;20045;-93
2021/06/13 07:06:33;;;;;;;5.25;2.55;;;16.20;99.90;;;;;;5008482;28;20064;-94
2021/06/13 07:08:58;;;;;;;5.38;2.83;;;16.30;99.90;;;;;;5005597;28;20022;-94
2021/06/13 07:11:25;;;;;;;5.80;2.70;;;16.40;99.90;;;;;;5007526;28;20045;-94
2021/06/13 07:13:51;;;;;;;8.55;2.80;;;16.40;99.90;;;;;;5004145;28;20041;-93
2021/06/13 07:16:19;;;;;;;9.10;3.30;;;16.60;99.90;;;;;;5002328;28;20041;-93
2021/06/13 07:18:44;;;;;;;10.45;3.25;;;16.70;99.90;;;;;;5003026;28;20137;-94
2021/06/13 07:21:11;;;;;;;7.72;3.55;;;16.80;99.90;;;;;;5001887;28;20038;-94
2021/06/13 07:23:36;;;;;;;9.40;3.00;;;17.00;99.90;;;;;;5003305;28;20030;-94
2021/06/13 07:26:03;;;;;;;6.72;2.92;;;17.10;99.90;;;;;;5000933;28;20026;-94
2021/06/13 07:28:31;;;;;;;4.15;2.95;;;17.10;99.90;;;;;;5001265;28;20026;-93
2021/06/13 07:30:58;;;;;;;5.28;2.70;;;17.20;99.90;;;;;;5004935;28;20091;-95
2021/06/13 07:33:25;;;;;;;10.80;3.58;;;17.40;99.90;;;;;;5004103;28;20784;-93
2021/06/13 07:35:52;;;;;;;10.98;4.50;;;17.40;99.90;;;;;;5004122;28;20056;-93
2021/06/13 07:38:18;;;;;;;10.38;3.58;;;17.60;99.90;;;;;;5007233;28;20054;-93
2021/06/13 07:40:44;;;;;;;14.82;4.80;;;17.70;99.90;;;;;;5005359;28;20437;-93
2021/06/13 07:43:09;;;;;;;12.20;4.80;;;17.80;99.90;;;;;;5005566;28;20445;-93
2021/06/13 07:45:36;;;;;;;11.55;4.95;;;17.80;99.90;;;;;;5001613;28;20041;-93
2021/06/13 07:48:06;;;;;;;11.35;4.55;;;17.90;99.90;;;;;;5000745;28;20057;-93
2021/06/13 07:50:31;;;;;;;9.02;3.28;;;18.00;99.90;;;;;;4996201;28;20052;-92
2021/06/13 07:52:57;;;;;;;8.55;3.45;;;18.10;99.90;;;;;;4996731;28;20484;-93
2021/06/13 07:55:25;;;;;;;6.88;2.90;;;18.30;99.90;;;;;;4995333;28;20089;-93
2021/06/13 07:57:51;;;;;;;4.38;3.33;;;18.50;99.90;;;;;;4997773;28;20034;-93
2021/06/13 08:00:19;;;;;;;5.43;2.80;;;18.60;99.90;;;;;;4996609;28;20664;-93
2021/06/13 08:02:47;;;;;;;3.83;2.40;;;18.80;99.90;;;;;;4997468;28;20027;-93
2021/06/13 08:05:24;;;;;;;6.35;2.78;;;18.90;99.90;;;;;;4995215;28;20022;-94
2021/06/13 08:07:50;;;;;;;8.40;2.58;;;19.10;99.90;;;;;;4992913;28;20445;-94
2021/06/13 08:10:17;;;;;;;7.45;2.88;;;19.30;99.90;;;;;;4995056;28;20117;-92
2021/06/13 08:12:43;;;;;;;5.05;2.60;;;19.40;99.90;;;;;;4996740;28;20084;-93
2021/06/13 08:15:09;;;;;;;8.75;2.97;;;19.60;99.90;;;;;;5000179;28;20026;-93
2021/06/13 08:17:37;;;;;;;6.50;2.63;;;19.70;99.90;;;;;;4995773;28;20034;-96
2021/06/13 08:20:05;;;;;;;7.07;2.53;;;19.80;99.90;;;;;;4997189;28;20034;-95
2021/06/13 08:22:33;;;;;;;4.20;2.42;;;19.90;99.90;;;;;;4996773;28;20073;-95
2021/06/13 08:24:59;;;;;;;8.05;2.13;;;20.00;99.90;;;;;;4998702;28;20026;-95
2021/06/13 08:27:29;;;;;;;3.83;1.80;;;20.10;99.50;;;;;;4996149;28;20115;-94
2021/06/13 08:29:57;;;;;;;7.57;2.30;;;20.10;99.10;;;;;;4997321;28;20026;-95
2021/06/13 08:32:23;;;;;;;5.20;2.60;;;20.20;98.80;;;;;;4996130;28;20039;-95
2021/06/13 08:34:48;;;;;;;5.57;1.88;;;20.30;98.60;;;;;;4996867;28;20022;-94
2021/06/13 08:37:14;;;;;;;4.97;2.30;;;20.40;98.20;;;;;;4996307;28;20033;-92
2021/06/13 08:39:40;;;;;;;8.98;2.80;;;20.50;97.80;;;;;;4995214;28;20085;-94
2021/06/13 08:42:06;;;;;;;4.07;2.30;;;20.60;97.50;;;;;;4995349;28;20534;-94
2021/06/13 08:44:32;;;;;;;5.97;2.03;;;20.70;97.10;;;;;;4996400;28;20034;-96
2021/06/13 08:47:00;;;;;;;6.03;3.05;;;20.80;96.60;;;;;;4996048;28;20428;-94
2021/06/13 08:49:29;;;;;;;3.50;2.00;;;20.90;96.30;;;;;;4995807;28;20117;-94
2021/06/13 08:51:55;;;;;;;3.25;2.03;;;21.00;95.80;;;;;;4998881;28;20037;-95
2021/06/13 08:54:22;;;;;;;3.45;1.70;;;21.10;95.40;;;;;;5003666;28;20050;-94
2021/06/13 08:56:48;;;;;;;3.80;1.98;;;21.30;95.10;;;;;;4994199;28;20034;-94
2021/06/13 08:59:14;;;;;;;3.25;2.03;;;21.40;94.80;;;;;;4994657;28;20121;-95
2021/06/13 09:01:40;;;;;;;4.28;1.95;;;21.50;94.30;;;;;;4994707;28;20032;-96
2021/06/13 09:04:06;;;;;;;3.45;1.65;;;21.70;94.20;;;;;;4993967;28;20026;-95
2021/06/13 09:06:32;;;;;;;3.33;1.80;;;21.90;93.80;;;;;;4994412;28;20034;-96
2021/06/13 09:09:02;;;;;;;7.80;2.08;;;22.00;93.20;;;;;;4994858;28;20033;-95
2021/06/13 09:11:48;;;;;;;;;;;;;;;;;;;;;
2021/06/13 09:14:20;;;;;;;3.47;1.60;;;22.50;92.30;;;;;;4993198;28;20116;-95
2021/06/13 09:17:10;;;;;;;4.50;1.85;;;22.70;92.00;;;;;;4996312;28;20029;-95
2021/06/13 09:20:08;;;;;;;3.65;2.10;;;22.80;91.50;;;;;;4991723;28;20065;-95
2021/06/13 09:22:37;;;;;;;2.80;1.90;;;22.90;91.00;;;;;;4994609;28;20033;-94
2021/06/13 09:25:11;;;;;;;12.25;2.72;;;23.00;90.50;;;;;;4995508;28;20026;-96
2021/06/13 09:28:09;;;;;;;6.10;1.98;;;23.10;90.20;;;;;;4999387;28;20026;-96
2021/06/13 09:30:38;;;;;;;7.25;2.80;;;23.10;88.50;;;;;;5002003;28;20038;-95
2021/06/13 09:33:05;;;;;;;6.35;2.17;;;23.10;88.20;;;;;;5007638;28;20019;-94
2021/06/13 09:35:33;;;;;;;9.27;2.30;;;23.10;87.80;;;;;;5004527;28;20022;-95
2021/06/13 09:38:15;;;;;;;6.40;2.20;;;23.00;87.70;;;;;;5003372;28;20030;-96
2021/06/13 09:40:47;;;;;;;6.32;1.90;;;23.00;87.90;;;;;;5003932;28;20392;-93
2021/06/13 09:43:22;;;;;;;6.57;1.88;;;23.20;87.70;;;;;;4995702;28;20030;-94
2021/06/13 09:45:51;;;;;;;5.55;1.70;;;23.30;86.80;;;;;;4995095;28;20053;-93
2021/06/13 09:48:20;;;;;;;5.57;1.80;;;23.20;86.40;;;;;;4997610;28;20033;-93
2021/06/13 09:50:49;;;;;;;5.45;2.00;;;23.10;85.40;;;;;;4997379;28;20134;-93
2021/06/13 09:53:25;;;;;;;3.20;1.90;;;23.10;85.20;;;;;;4996998;28;20018;-94
2021/06/13 09:56:02;;;;;;;4.18;1.92;;;23.10;85.10;;;;;;4997311;28;20046;-94
2021/06/13 09:58:29;;;;;;;6.38;2.05;;;23.20;84.80;;;;;;4997603;28;20508;-94
2021/06/13 10:01:04;;;;;;;5.38;2.05;;;23.30;84.30;;;;;;4997715;28;20023;-94
2021/06/13 10:03:34;;;;;;;5.20;1.50;;;23.30;83.90;;;;;;4999414;28;20507;-95
2021/06/13 10:06:00;;;;;;;12.50;1.90;;;23.50;83.60;;;;;;5002342;28;20033;-95
2021/06/13 10:08:27;;;;;;;4.57;1.70;;;23.50;82.70;;;;;;5000205;28;20038;-92
2021/06/13 10:10:55;;;;;;;4.07;1.20;;;23.40;82.10;;;;;;5000036;28;20027;-94
2021/06/13 10:13:40;;;;;;;7.93;1.48;;;23.40;81.50;;;;;;5000201;28;20037;-92
2021/06/13 10:16:10;;;;;;;3.92;1.38;;;23.30;81.50;;;;;;4999999;28;20038;-92
2021/06/13 10:18:42;;;;;;;4.05;1.20;;;23.40;81.50;;;;;;5000165;28;20034;-92
2021/06/13 10:21:21;;;;;;;8.73;1.55;;;23.40;80.80;;;;;;4997977;28;20057;-92
2021/06/13 10:23:47;;;;;;;4.93;1.00;;;23.30;80.60;;;;;;4998537;28;20039;-93
2021/06/13 10:26:13;;;;;;;3.42;1.42;;;23.30;80.50;;;;;;4999123;28;20027;-93
2021/06/13 10:28:41;;;;;;;3.42;1.33;;;23.30;80.10;;;;;;4998307;28;20048;-92
2021/06/13 10:31:08;;;;;;;2.38;1.08;;;23.30;79.80;;;;;;4999460;28;20034;-92
2021/06/13 10:33:35;;;;;;;4.60;1.10;;;23.30;79.50;;;;;;4982779;28;20029;-92
2021/06/13 10:36:05;;;;;;;2.95;1.02;;;23.30;79.30;;;;;;4998794;28;20039;-92
2021/06/13 10:38:31;;;;;;;4.38;0.82;;;23.40;79.50;;;;;;5006062;28;20129;-91
2021/06/13 10:40:59;;;;;;;3.60;1.10;;;23.40;79.30;;;;;;5008882;28;20031;-94
2021/06/13 10:43:28;;;;;;;0.95;0.60;;;23.40;78.80;;;;;;5004784;28;20089;-94
2021/06/13 10:46:07;;;;;;;1.05;0.50;;;23.40;78.30;;;;;;5003897;28;20081;-93
2021/06/13 10:48:40;;;;;;;9.57;1.27;;;23.40;77.50;;;;;;5003947;28;20038;-91
2021/06/13 10:51:27;;;;;;;0.85;0.50;;;23.40;77.40;;;;;;5003658;28;20022;-92
2021/06/13 10:53:53;;;;;;;2.80;0.60;;;23.30;77.50;;;;;;5001285;28;20046;-94
2021/06/13 10:56:25;;;;;;;0.82;0.80;;;23.40;77.50;;;;;;5000332;28;20049;-91
2021/06/13 10:59:02;;;;;;;5.97;1.17;;;23.30;77.40;;;;;;5000129;28;20058;-92
2021/06/13 11:01:30;;;;;;;2.28;0.52;;;23.40;77.40;;;;;;5000159;28;20034;-91
2021/06/13 11:04:04;;;;;;;2.95;1.15;;;23.30;77.20;;;;;;4998865;28;20061;-92
2021/06/13 11:06:39;;;;;;;7.10;0.95;;;23.30;77.40;;;;;;4999508;28;20026;-91
2021/06/13 11:09:11;;;;;;;4.65;0.93;;;23.30;77.40;;;;;;4998820;28;20026;-92
2021/06/13 11:11:47;;;;;;;6.57;1.40;;;23.30;77.20;;;;;;4998450;28;20030;-91
2021/06/13 11:14:36;;;;;;;3.13;1.00;;;23.20;77.50;;;;;;4996998;28;20685;-92
2021/06/13 11:17:01;;;;;;;3.10;0.80;;;23.30;78.00;;;;;;4998627;28;20557;-90
2021/06/13 11:19:36;;;;;;;1.20;0.70;;;23.20;77.70;;;;;;4998165;28;20050;-91
2021/06/13 11:22:33;;;;;;;21.98;1.88;;;23.20;77.80;;;;;;4999545;28;20030;-91
2021/06/13 11:25:00;;;;;;;1.33;0.90;;;23.30;78.00;;;;;;4999794;28;20026;-94
2021/06/13 11:27:28;;;;;;;1.95;0.73;;;23.30;77.40;;;;;;5009597;28;20034;-92
2021/06/13 11:29:59;;;;;;;1.63;1.20;;;23.20;77.40;;;;;;5013636;28;20029;-94
2021/06/13 11:32:50;;;;;;;1.05;0.60;;;23.20;77.40;;;;;;5007178;28;20093;-93
2021/06/13 11:35:30;;;;;;;2.13;1.13;;;23.30;77.50;;;;;;4981476;28;20023;-93
2021/06/13 11:38:08;;;;;;;4.03;0.85;;;23.40;77.10;;;;;;4981172;28;20031;-94
2021/06/13 11:40:34;;;;;;;1.25;0.60;;;23.50;77.20;;;;;;4981590;28;20046;-94
2021/06/13 11:43:17;;;;;;;3.03;0.80;;;23.70;76.80;;;;;;4992865;28;20488;-94
2021/06/13 11:46:01;;;;;;;3.08;0.90;;;23.80;76.50;;;;;;4999474;28;20031;-94
2021/06/13 11:48:29;;;;;;;1.48;0.82;;;23.90;76.20;;;;;;4999849;28;20028;-93
2021/06/13 11:50:58;;;;;;;3.40;0.77;;;24.00;75.90;;;;;;4998909;28;20113;-94
2021/06/13 11:53:51;;;;;;;2.08;1.00;;;24.10;75.60;;;;;;4999242;28;20026;-94
2021/06/13 11:56:35;;;;;;;3.38;1.08;;;24.20;75.40;;;;;;4965399;28;20045;-94
2021/06/13 11:59:04;;;;;;;3.35;0.90;;;24.30;74.90;;;;;;4999705;28;20038;-93
2021/06/13 12:01:37;;;;;;;3.70;1.10;;;24.30;74.70;;;;;;4999289;28;20110;-92
2021/06/13 12:04:19;;;;;;;2.15;1.52;;;24.30;74.60;;;;;;4996873;28;20057;-94
2021/06/13 12:07:08;;;;;;;6.05;1.35;;;24.20;74.70;;;;;;4997097;28;20520;-93
2021/06/13 12:09:37;;;;;;;5.80;1.17;;;24.10;74.80;;;;;;4996147;28;20045;-93
2021/06/13 12:12:05;;;;;;;5.22;1.38;;;24.10;74.90;;;;;;4995599;28;20125;-93
2021/06/13 12:14:37;;;;;;;3.72;0.90;;;24.10;75.00;;;;;;4995594;28;20586;-93
2021/06/13 12:17:21;;;;;;;2.78;0.98;;;24.20;74.90;;;;;;4992891;28;20484;-93
2021/06/13 12:19:51;;;;;;;2.40;0.80;;;24.20;74.70;;;;;;4987846;28;20384;-92
2021/06/13 12:27:52;;;;;;;5.68;1.52;;;24.30;74.50;;;;;;4998653;28;20090;-94
2021/06/13 12:30:27;;;;;;;5.10;1.50;;;24.40;74.30;;;;;;4997517;28;20033;-91
2021/06/13 12:32:54;;;;;;;5.30;1.20;;;24.40;74.00;;;;;;4997840;28;20038;-95
2021/06/13 12:35:20;;;;;;;1.80;1.17;;;24.50;74.00;;;;;;4996396;28;20023;-95
2021/06/13 12:37:58;;;;;;;4.15;1.40;;;24.60;74.00;;;;;;4995714;28;20037;-92
2021/06/13 12:40:24;;;;;;;2.05;1.17;;;24.70;73.90;;;;;;4996404;28;20031;-95
2021/06/13 12:42:51;;;;;;;3.58;1.40;;;24.80;73.80;;;;;;4996977;28;20026;-96
2021/06/13 12:45:18;;;;;;;3.67;1.65;;;24.90;73.60;;;;;;4996988;28;20026;-95
2021/06/13 12:47:49;;;;;;;3.30;1.20;;;24.90;73.40;;;;;;4993914;28;20484;-93
2021/06/13 12:50:26;;;;;;;3.00;1.25;;;24.90;73.50;;;;;;4998360;28;20034;-95
2021/06/13 12:52:56;;;;;;;1.88;1.20;;;24.80;72.90;;;;;;4997251;28;20034;-93
2021/06/13 12:55:22;;;;;;;3.15;1.00;;;24.80;73.00;;;;;;4997487;28;20049;-94
2021/06/13 12:57:53;;;;;;;2.42;1.10;;;24.90;73.20;;;;;;4997456;28;20030;-94
2021/06/13 13:00:22;;;;;;;3.08;1.27;;;24.90;73.00;;;;;;4999782;28;20058;-93
2021/06/13 13:03:06;;;;;;;2.35;1.38;;;25.00;72.90;;;;;;5000305;28;20538;-93
2021/06/13 13:05:43;;;;;;;3.92;1.27;;;25.20;72.80;;;;;;5000132;28;20045;-95
2021/06/13 13:09:04;;;;;;;5.53;1.30;;;25.20;72.40;;;;;;4996759;28;20023;-95